Time;durP1;ratioP1;P1;durP2;ratioP2;P2;SDS_P1;SDS_P2;PMS_P1;PMS_P2;Temp;Humidity;BMP_temperature;BMP_pressure;BME280_temperature;BME280_humidity;BME280_pressure;Samples;Min_cycle;Max_cycle;Signal;HPM_P1;HPM_P2
2023/12/21 00:00:40;;;;;;;1.20;1.10;;;21.30;54.10;;;;;;4932741;29;20488;-86
2023/12/21 00:03:10;;;;;;;1.13;1.03;;;21.30;54.30;;;;;;4944514;29;20455;-87
2023/12/21 00:05:39;;;;;;;1.20;0.93;;;21.20;54.20;;;;;;4921230;29;20470;-86
2023/12/21 00:08:07;;;;;;;1.00;0.80;;;21.20;54.10;;;;;;4936152;29;20514;-86
2023/12/21 00:10:36;;;;;;;1.00;0.90;;;21.20;54.40;;;;;;4937714;29;20462;-87
2023/12/21 00:13:05;;;;;;;1.47;1.00;;;21.20;54.10;;;;;;4948152;29;20514;-86
2023/12/21 00:15:33;;;;;;;1.37;1.27;;;21.20;54.10;;;;;;4926838;29;20454;-86
2023/12/21 00:18:03;;;;;;;1.00;0.90;;;21.20;54.10;;;;;;4937861;29;20494;-86
2023/12/21 00:20:32;;;;;;;1.10;1.00;;;21.10;54.10;;;;;;4936102;29;20487;-86
2023/12/21 00:23:01;;;;;;;1.57;1.47;;;21.10;54.30;;;;;;4934824;29;20475;-86
2023/12/21 00:25:29;;;;;;;1.73;1.60;;;21.10;54.10;;;;;;4951689;29;20512;-86
2023/12/21 00:27:58;;;;;;;1.63;0.97;;;21.10;54.30;;;;;;4941514;29;20461;-87
2023/12/21 00:30:26;;;;;;;2.57;1.10;;;21.10;54.20;;;;;;4918516;29;20542;-86
2023/12/21 00:32:54;;;;;;;1.17;1.03;;;21.10;54.40;;;;;;4923406;29;20555;-86
2023/12/21 00:35:23;;;;;;;1.13;0.93;;;21.10;54.40;;;;;;4938892;29;20460;-86
2023/12/21 00:37:52;;;;;;;1.67;1.23;;;21.10;54.10;;;;;;4935728;29;20453;-86
2023/12/21 00:40:22;;;;;;;1.53;0.97;;;21.10;54.10;;;;;;4934506;29;20477;-86
2023/12/21 00:42:50;;;;;;;1.10;0.90;;;21.00;54.20;;;;;;4935277;29;20450;-86
2023/12/21 00:45:19;;;;;;;0.97;0.97;;;21.10;54.50;;;;;;4941125;29;20537;-86
2023/12/21 00:47:48;;;;;;;1.77;1.13;;;21.00;54.20;;;;;;4938145;29;20460;-87
2023/12/21 00:50:17;;;;;;;1.63;1.10;;;21.00;54.10;;;;;;4933345;29;20591;-87
2023/12/21 00:52:45;;;;;;;0.97;0.87;;;21.00;54.20;;;;;;4934541;29;20447;-86
2023/12/21 00:55:15;;;;;;;2.40;1.10;;;21.00;54.30;;;;;;4936664;29;20879;-86
2023/12/21 00:57:43;;;;;;;0.80;0.80;;;21.00;54.30;;;;;;4930156;29;20616;-87
2023/12/21 01:00:13;;;;;;;1.10;1.00;;;21.00;54.20;;;;;;4918600;29;20878;-86
2023/12/21 01:02:41;;;;;;;0.90;0.70;;;21.00;54.00;;;;;;4933274;29;20883;-86
2023/12/21 01:05:09;;;;;;;2.03;1.00;;;21.00;54.20;;;;;;4945224;29;20859;-85
2023/12/21 01:07:38;;;;;;;1.00;0.80;;;21.00;54.20;;;;;;4946250;29;20949;-88
2023/12/21 01:10:07;;;;;;;2.13;1.10;;;21.00;54.10;;;;;;4945056;29;20492;-87
2023/12/21 01:12:36;;;;;;;1.57;1.10;;;21.00;54.20;;;;;;4933886;29;20453;-86
2023/12/21 01:15:07;;;;;;;2.37;0.97;;;21.00;54.10;;;;;;4938751;29;20455;-87
2023/12/21 01:17:35;;;;;;;1.73;1.17;;;21.00;54.30;;;;;;4937990;29;20446;-87
2023/12/21 01:20:07;;;;;;;0.90;0.83;;;21.00;54.20;;;;;;4935209;29;20467;-86
2023/12/21 01:22:36;;;;;;;1.70;0.70;;;20.90;54.20;;;;;;4948260;29;20452;-86
2023/12/21 01:25:05;;;;;;;0.97;0.60;;;20.90;54.20;;;;;;4922747;29;20824;-86
2023/12/21 01:27:33;;;;;;;1.00;0.87;;;20.90;54.00;;;;;;4926521;29;20553;-86
2023/12/21 01:30:03;;;;;;;0.97;0.90;;;20.90;54.40;;;;;;4934415;29;20482;-87
2023/12/21 01:32:31;;;;;;;1.17;1.07;;;20.90;54.40;;;;;;4933765;29;20544;-87
2023/12/21 01:35:00;;;;;;;0.97;0.80;;;20.90;54.20;;;;;;4936452;29;20464;-86
2023/12/21 01:37:29;;;;;;;0.80;0.80;;;20.90;54.20;;;;;;4935132;29;20458;-86
2023/12/21 01:39:57;;;;;;;1.07;0.97;;;20.90;54.40;;;;;;4932493;29;20474;-86
2023/12/21 01:42:25;;;;;;;0.93;0.80;;;20.90;54.40;;;;;;4940892;29;20496;-88
2023/12/21 01:44:54;;;;;;;1.53;0.80;;;20.90;54.20;;;;;;4936522;29;20479;-86
2023/12/21 01:47:24;;;;;;;0.87;0.80;;;20.90;54.20;;;;;;4939017;29;20451;-86
2023/12/21 01:49:52;;;;;;;0.60;0.60;;;20.90;54.20;;;;;;4932656;29;20480;-86
2023/12/21 01:52:22;;;;;;;0.97;0.63;;;20.90;54.40;;;;;;4938163;29;20476;-86
2023/12/21 01:54:50;;;;;;;1.70;1.07;;;20.90;54.40;;;;;;4932737;29;21020;-86
2023/12/21 01:57:19;;;;;;;1.50;1.27;;;20.90;54.20;;;;;;4934919;29;20458;-88
2023/12/21 01:59:48;;;;;;;1.30;0.93;;;20.80;54.40;;;;;;4917152;29;20473;-87
2023/12/21 02:02:16;;;;;;;2.20;1.07;;;20.80;54.40;;;;;;4925517;29;20453;-86
2023/12/21 02:04:46;;;;;;;0.87;0.87;;;20.80;54.20;;;;;;4934395;29;20480;-86
2023/12/21 02:07:14;;;;;;;0.90;0.90;;;20.80;54.50;;;;;;4932899;29;20484;-85
2023/12/21 02:09:43;;;;;;;0.80;0.73;;;20.80;54.50;;;;;;4933146;29;20571;-86
2023/12/21 02:12:11;;;;;;;1.03;0.83;;;20.80;54.50;;;;;;4941559;29;20459;-86
2023/12/21 02:14:39;;;;;;;1.13;1.03;;;20.80;54.40;;;;;;4934208;29;20830;-87
2023/12/21 02:17:16;;;;;;;1.00;0.90;;;20.80;54.40;;;;;;4940283;29;20458;-87
2023/12/21 02:19:46;;;;;;;2.37;1.00;;;20.80;54.50;;;;;;4934084;29;20467;-85
2023/12/21 02:22:16;;;;;;;0.80;0.60;;;20.70;54.40;;;;;;4933617;29;20461;-85
2023/12/21 02:24:46;;;;;;;0.70;0.70;;;20.70;54.50;;;;;;4932830;29;20468;-87
2023/12/21 02:27:14;;;;;;;1.13;1.00;;;20.70;54.40;;;;;;4923699;29;20504;-85
2023/12/21 02:29:42;;;;;;;1.63;0.90;;;20.70;54.40;;;;;;4933379;29;20967;-86
2023/12/21 02:32:11;;;;;;;0.80;0.63;;;20.70;54.30;;;;;;4934287;29;20457;-86
2023/12/21 02:34:40;;;;;;;1.00;0.80;;;20.70;54.40;;;;;;4933801;29;20453;-86
2023/12/21 02:37:08;;;;;;;1.23;0.90;;;20.70;54.50;;;;;;4932494;29;20469;-86
2023/12/21 02:39:37;;;;;;;1.23;0.80;;;20.70;54.40;;;;;;4933540;29;20523;-86
2023/12/21 02:42:07;;;;;;;0.97;0.70;;;20.70;54.50;;;;;;4933914;29;20444;-86
2023/12/21 02:44:35;;;;;;;1.63;0.90;;;20.60;54.50;;;;;;4933429;29;20446;-88
2023/12/21 02:47:04;;;;;;;0.60;0.60;;;20.70;54.40;;;;;;4916910;29;20449;-86
2023/12/21 02:49:32;;;;;;;0.90;0.90;;;20.60;54.50;;;;;;4932613;29;21032;-87
2023/12/21 02:52:00;;;;;;;1.10;1.00;;;20.60;54.40;;;;;;4932969;29;20465;-86
2023/12/21 02:54:29;;;;;;;0.90;0.80;;;20.60;54.40;;;;;;4933046;29;20473;-86
2023/12/21 02:56:57;;;;;;;0.73;0.70;;;20.60;54.60;;;;;;4932506;29;20445;-86
2023/12/21 02:59:26;;;;;;;0.50;0.50;;;20.60;54.40;;;;;;4933035;29;20475;-86
2023/12/21 03:01:55;;;;;;;0.60;0.60;;;20.60;54.30;;;;;;4931267;29;20473;-86
2023/12/21 03:04:23;;;;;;;0.70;0.67;;;20.60;54.40;;;;;;4933076;29;20547;-86
2023/12/21 03:06:51;;;;;;;1.10;1.00;;;20.60;54.40;;;;;;4933413;29;20462;-86
2023/12/21 03:09:19;;;;;;;1.00;0.97;;;20.60;54.40;;;;;;4933830;29;20944;-86
2023/12/21 03:11:48;;;;;;;0.90;0.77;;;20.60;54.40;;;;;;4932759;29;21385;-86
2023/12/21 03:14:16;;;;;;;0.60;0.60;;;20.60;54.40;;;;;;4933328;29;20457;-85
2023/12/21 03:16:47;;;;;;;1.17;0.70;;;20.50;54.50;;;;;;4933908;29;20544;-85
2023/12/21 03:19:15;;;;;;;0.80;0.80;;;20.50;54.50;;;;;;4944028;29;20484;-85
2023/12/21 03:21:43;;;;;;;1.60;0.60;;;20.50;54.40;;;;;;4916106;29;20480;-86
2023/12/21 03:24:11;;;;;;;0.80;0.80;;;20.50;54.60;;;;;;4916571;29;20456;-86
2023/12/21 03:26:41;;;;;;;0.70;0.50;;;20.50;54.30;;;;;;4932921;29;20452;-87
2023/12/21 03:29:10;;;;;;;1.47;1.03;;;20.50;54.50;;;;;;4932586;29;20540;-86
2023/12/21 03:31:38;;;;;;;1.47;0.77;;;20.50;54.40;;;;;;4932783;29;20532;-86
2023/12/21 03:34:07;;;;;;;0.60;0.50;;;20.50;54.50;;;;;;4933340;29;20936;-86
2023/12/21 03:36:36;;;;;;;3.13;1.03;;;20.40;54.50;;;;;;4938140;29;20470;-85
2023/12/21 03:39:04;;;;;;;0.60;0.50;;;20.40;54.60;;;;;;4930894;29;20512;-85
2023/12/21 03:41:33;;;;;;;0.60;0.60;;;20.40;54.50;;;;;;4921517;29;20464;-86
2023/12/21 03:44:01;;;;;;;0.70;0.60;;;20.40;54.40;;;;;;4936957;29;20468;-86
2023/12/21 03:46:29;;;;;;;0.60;0.60;;;20.40;54.50;;;;;;4938482;29;20457;-86
2023/12/21 03:48:57;;;;;;;1.83;1.13;;;20.40;54.40;;;;;;4944567;29;20474;-87
2023/12/21 03:51:27;;;;;;;0.70;0.70;;;20.40;54.50;;;;;;4942593;29;20479;-86
2023/12/21 03:53:56;;;;;;;1.70;1.00;;;20.40;54.60;;;;;;4929415;29;21026;-85
2023/12/21 03:56:24;;;;;;;0.80;0.80;;;20.40;54.50;;;;;;4933204;29;20461;-86
2023/12/21 03:58:52;;;;;;;0.60;0.50;;;20.40;54.50;;;;;;4937289;29;20463;-86
2023/12/21 04:01:25;;;;;;;0.60;0.60;;;20.40;54.40;;;;;;4936256;29;20850;-86
2023/12/21 04:03:53;;;;;;;1.20;0.57;;;20.40;54.50;;;;;;4926481;29;20544;-86
2023/12/21 04:06:22;;;;;;;0.83;0.80;;;20.30;54.50;;;;;;4947542;29;20451;-85
2023/12/21 04:08:54;;;;;;;0.77;0.77;;;20.30;54.50;;;;;;4940498;29;20834;-86
2023/12/21 04:11:22;;;;;;;0.83;0.80;;;20.30;54.50;;;;;;4935873;29;20571;-86
2023/12/21 04:13:51;;;;;;;1.17;0.80;;;20.30;54.60;;;;;;4936517;29;20461;-86
2023/12/21 04:16:19;;;;;;;0.70;0.70;;;20.30;54.40;;;;;;4950111;29;20445;-86
2023/12/21 04:18:47;;;;;;;0.80;0.80;;;20.30;54.40;;;;;;4936677;29;20503;-88
2023/12/21 04:21:15;;;;;;;0.97;0.60;;;20.30;54.70;;;;;;4934036;29;20842;-85
2023/12/21 04:23:44;;;;;;;1.10;1.00;;;20.30;54.60;;;;;;4938114;29;20456;-85
2023/12/21 04:26:20;;;;;;;0.93;0.80;;;20.30;54.50;;;;;;4936127;29;20453;-86
2023/12/21 04:28:49;;;;;;;0.70;0.70;;;20.30;54.60;;;;;;4926310;29;20449;-86
2023/12/21 04:31:20;;;;;;;0.93;0.80;;;20.30;54.70;;;;;;4935257;29;20480;-85
2023/12/21 04:33:51;;;;;;;1.53;1.00;;;20.30;54.60;;;;;;4910777;29;20462;-86
2023/12/21 04:36:20;;;;;;;0.80;0.80;;;20.30;54.50;;;;;;4937038;29;20531;-87
2023/12/21 04:38:55;;;;;;;0.93;0.73;;;20.30;54.60;;;;;;4932763;29;20833;-85
2023/12/21 04:41:25;;;;;;;0.77;0.60;;;20.20;54.60;;;;;;4935038;29;20457;-85
2023/12/21 04:43:53;;;;;;;1.43;0.60;;;20.20;54.60;;;;;;4935746;29;20453;-86
2023/12/21 04:46:22;;;;;;;0.60;0.60;;;20.20;54.60;;;;;;4930476;29;20954;-86
2023/12/21 04:48:50;;;;;;;0.60;0.60;;;20.20;54.60;;;;;;4935357;29;20827;-86
2023/12/21 04:51:19;;;;;;;0.80;0.80;;;20.20;54.60;;;;;;4917052;29;20593;-86
2023/12/21 04:53:47;;;;;;;0.60;0.60;;;20.20;54.50;;;;;;4911909;29;20554;-86
2023/12/21 04:56:15;;;;;;;1.10;0.70;;;20.20;54.80;;;;;;4927621;29;20449;-85
2023/12/21 04:58:45;;;;;;;0.80;0.80;;;20.20;54.70;;;;;;4935233;29;20456;-86
2023/12/21 05:01:13;;;;;;;0.57;0.57;;;20.20;54.70;;;;;;4936710;29;20467;-86
2023/12/21 05:03:43;;;;;;;0.80;0.60;;;20.20;54.60;;;;;;4931289;29;20472;-86
2023/12/21 05:06:11;;;;;;;0.50;0.50;;;20.20;54.70;;;;;;4937384;29;20475;-85
2023/12/21 05:08:39;;;;;;;1.10;0.50;;;20.20;54.50;;;;;;4918004;29;20453;-86
2023/12/21 05:11:08;;;;;;;0.93;0.70;;;20.30;54.40;;;;;;4934562;29;21012;-86
2023/12/21 05:13:36;;;;;;;0.70;0.70;;;20.30;54.50;;;;;;4935363;29;20925;-86
2023/12/21 05:16:06;;;;;;;1.00;0.60;;;20.30;54.30;;;;;;4925198;29;20570;-86
2023/12/21 05:18:36;;;;;;;1.00;0.80;;;20.40;54.20;;;;;;4937479;29;21001;-86
2023/12/21 05:21:07;;;;;;;0.53;0.53;;;20.40;54.10;;;;;;4928705;29;21017;-86
2023/12/21 05:23:36;;;;;;;0.83;0.83;;;20.40;54.10;;;;;;4936244;29;20472;-86
2023/12/21 05:26:10;;;;;;;0.80;0.70;;;20.50;54.00;;;;;;4929397;29;20453;-86
2023/12/21 05:28:39;;;;;;;0.73;0.70;;;20.50;54.00;;;;;;4944608;29;20525;-86
2023/12/21 05:31:09;;;;;;;0.60;0.60;;;20.60;53.90;;;;;;4934815;29;20477;-87
2023/12/21 05:33:38;;;;;;;0.70;0.70;;;20.60;53.90;;;;;;4938747;29;20551;-86
2023/12/21 05:36:07;;;;;;;1.17;1.03;;;20.60;53.80;;;;;;4935015;29;20447;-86
2023/12/21 05:38:37;;;;;;;1.13;0.73;;;20.70;53.70;;;;;;4941652;29;20452;-87
2023/12/21 05:41:05;;;;;;;1.10;0.70;;;20.70;53.70;;;;;;4935070;29;20466;-87
2023/12/21 05:43:34;;;;;;;0.60;0.60;;;20.70;53.70;;;;;;4939001;29;20448;-86
2023/12/21 05:46:02;;;;;;;0.60;0.60;;;20.80;53.50;;;;;;4938555;29;20465;-86
2023/12/21 05:48:35;;;;;;;0.77;0.77;;;20.80;53.40;;;;;;4943315;29;20464;-86
2023/12/21 05:51:03;;;;;;;1.57;0.70;;;20.90;53.50;;;;;;4909777;29;20804;-87
2023/12/21 05:53:32;;;;;;;1.43;0.70;;;20.90;53.40;;;;;;4933298;29;20465;-86
2023/12/21 05:56:02;;;;;;;0.37;0.37;;;20.90;53.50;;;;;;4936434;29;20452;-86
2023/12/21 05:58:30;;;;;;;0.60;0.50;;;21.00;53.30;;;;;;4913791;29;21285;-85
2023/12/21 06:00:58;;;;;;;0.80;0.50;;;21.00;53.40;;;;;;4932070;29;20459;-86
2023/12/21 06:03:27;;;;;;;1.63;0.70;;;21.10;53.40;;;;;;4909933;29;20473;-87
2023/12/21 06:05:58;;;;;;;0.70;0.70;;;21.10;53.40;;;;;;4933517;29;20468;-84
2023/12/21 06:08:26;;;;;;;1.63;0.67;;;21.10;53.30;;;;;;4941195;29;20458;-84
2023/12/21 06:10:55;;;;;;;0.80;0.80;;;21.10;53.40;;;;;;4924520;29;20497;-85
2023/12/21 06:13:23;;;;;;;0.80;0.70;;;21.10;53.30;;;;;;4924698;29;22542;-84
2023/12/21 06:15:52;;;;;;;0.50;0.40;;;21.10;53.40;;;;;;4931845;29;20888;-85
2023/12/21 06:18:21;;;;;;;1.03;0.80;;;21.20;53.50;;;;;;4938788;28;21285;-88
2023/12/21 06:20:50;;;;;;;0.77;0.77;;;21.20;53.70;;;;;;4923942;29;20476;-84
2023/12/21 06:23:20;;;;;;;0.70;0.67;;;21.10;53.70;;;;;;4922545;29;20477;-86
2023/12/21 06:25:48;;;;;;;1.43;0.90;;;21.10;53.60;;;;;;4920226;29;20866;-85
2023/12/21 06:28:17;;;;;;;1.43;0.70;;;21.10;53.80;;;;;;4944640;29;20449;-85
2023/12/21 06:30:46;;;;;;;2.80;0.80;;;21.10;53.70;;;;;;4938000;29;20818;-85
2023/12/21 06:33:16;;;;;;;2.60;0.70;;;21.10;53.90;;;;;;4923673;29;20493;-85
2023/12/21 06:35:47;;;;;;;0.80;0.80;;;21.10;53.90;;;;;;4934517;29;20933;-83
2023/12/21 06:38:17;;;;;;;1.40;0.93;;;21.20;53.90;;;;;;4931842;29;20457;-83
2023/12/21 06:40:48;;;;;;;2.10;0.90;;;21.10;53.90;;;;;;4925369;29;20468;-83
2023/12/21 06:43:16;;;;;;;1.43;0.90;;;21.10;54.10;;;;;;4928844;29;20460;-84
2023/12/21 06:45:47;;;;;;;1.10;0.77;;;21.20;54.10;;;;;;4939655;29;20928;-84
2023/12/21 06:48:15;;;;;;;1.90;0.90;;;21.10;54.00;;;;;;4932507;29;20488;-83
2023/12/21 06:50:44;;;;;;;2.30;1.30;;;21.20;53.90;;;;;;4934912;29;20456;-83
2023/12/21 06:53:15;;;;;;;0.80;0.70;;;21.10;54.10;;;;;;4935028;29;20493;-85
2023/12/21 06:55:44;;;;;;;1.90;0.90;;;21.10;54.00;;;;;;4934952;29;20546;-83
2023/12/21 06:58:14;;;;;;;1.70;1.13;;;21.10;54.00;;;;;;4933650;29;20467;-83
2023/12/21 07:00:42;;;;;;;1.43;1.00;;;21.10;54.10;;;;;;4933131;29;20932;-84
2023/12/21 07:03:11;;;;;;;1.10;1.00;;;21.10;54.10;;;;;;4910228;29;20572;-84
2023/12/21 07:05:39;;;;;;;1.60;1.10;;;21.10;54.10;;;;;;4939133;29;20897;-83
2023/12/21 07:08:08;;;;;;;1.87;1.27;;;21.10;54.00;;;;;;4943501;29;20533;-83
2023/12/21 07:10:36;;;;;;;1.33;1.00;;;21.10;54.10;;;;;;4910654;29;20524;-84
2023/12/21 07:13:05;;;;;;;1.20;1.10;;;21.10;54.00;;;;;;4923371;29;20477;-84
2023/12/21 07:15:35;;;;;;;1.63;1.40;;;21.10;53.90;;;;;;4939120;28;20950;-87
2023/12/21 07:18:05;;;;;;;1.27;1.17;;;21.10;54.00;;;;;;4928326;29;20503;-83
2023/12/21 07:20:33;;;;;;;1.20;1.10;;;21.10;54.00;;;;;;4919869;29;20814;-84
2023/12/21 07:23:02;;;;;;;1.93;1.00;;;21.10;54.00;;;;;;4935645;29;20468;-84
2023/12/21 07:25:31;;;;;;;1.53;0.87;;;21.10;54.10;;;;;;4935209;29;20552;-84
2023/12/21 07:27:59;;;;;;;1.13;1.07;;;21.20;54.10;;;;;;4939929;29;20498;-85
2023/12/21 07:30:28;;;;;;;1.20;1.03;;;21.20;54.00;;;;;;4931501;29;20545;-84
2023/12/21 07:32:58;;;;;;;1.93;1.20;;;21.20;54.00;;;;;;4930489;29;21262;-85
2023/12/21 07:35:26;;;;;;;1.13;1.00;;;21.20;53.90;;;;;;4926723;29;20468;-86
2023/12/21 07:37:55;;;;;;;1.13;1.10;;;21.20;53.80;;;;;;4933104;29;20528;-84
2023/12/21 07:40:23;;;;;;;1.50;1.40;;;21.20;53.80;;;;;;4930460;29;20492;-84
2023/12/21 07:42:52;;;;;;;2.47;1.23;;;21.20;54.00;;;;;;4932905;29;20459;-84
2023/12/21 07:45:20;;;;;;;1.43;1.30;;;21.20;54.00;;;;;;4923896;29;21058;-86
2023/12/21 07:47:49;;;;;;;1.37;1.27;;;21.20;53.90;;;;;;4928787;29;20456;-85
2023/12/21 07:50:19;;;;;;;1.03;0.93;;;21.20;53.90;;;;;;4933786;29;20569;-84
2023/12/21 07:52:48;;;;;;;1.57;1.47;;;21.20;53.90;;;;;;4925799;29;20970;-84
2023/12/21 07:55:17;;;;;;;2.30;1.30;;;21.20;53.90;;;;;;4929724;29;20464;-84
2023/12/21 07:57:46;;;;;;;1.67;1.20;;;21.20;53.80;;;;;;4933678;29;20465;-84
2023/12/21 08:00:16;;;;;;;1.77;1.00;;;21.20;53.90;;;;;;4932021;29;20487;-84
2023/12/21 08:02:45;;;;;;;1.10;0.97;;;21.20;53.90;;;;;;4933477;29;20513;-84
2023/12/21 08:05:15;;;;;;;1.23;0.83;;;21.20;53.80;;;;;;4924813;29;20507;-84
2023/12/21 08:07:46;;;;;;;1.70;1.00;;;21.10;53.90;;;;;;4934859;29;20467;-84
2023/12/21 08:10:14;;;;;;;1.33;1.23;;;21.10;54.00;;;;;;4930441;29;20465;-84
2023/12/21 08:12:43;;;;;;;1.10;1.10;;;21.10;54.00;;;;;;4934844;29;20477;-85
2023/12/21 08:15:12;;;;;;;2.20;1.23;;;21.10;53.90;;;;;;4928334;29;20477;-84
2023/12/21 08:17:42;;;;;;;1.50;1.37;;;21.10;53.90;;;;;;4933599;29;20616;-83
2023/12/21 08:20:15;;;;;;;0.83;0.83;;;21.20;54.00;;;;;;4912419;29;20968;-83
2023/12/21 08:22:45;;;;;;;2.57;1.07;;;21.20;53.90;;;;;;4913402;29;20455;-85
2023/12/21 08:25:14;;;;;;;1.30;1.10;;;21.20;53.80;;;;;;4910517;29;20449;-84
2023/12/21 08:27:44;;;;;;;1.10;1.00;;;21.20;53.90;;;;;;4915378;29;20454;-86
2023/12/21 08:30:14;;;;;;;1.90;1.07;;;21.20;53.90;;;;;;4916154;29;20464;-84
2023/12/21 08:32:45;;;;;;;0.70;0.70;;;21.20;53.90;;;;;;4909121;29;20546;-84
2023/12/21 08:35:15;;;;;;;1.80;0.97;;;21.20;54.00;;;;;;4911217;29;20462;-85
2023/12/21 08:37:46;;;;;;;1.20;1.10;;;21.20;53.90;;;;;;4915780;29;20475;-85
2023/12/21 08:40:16;;;;;;;1.00;1.00;;;21.20;54.00;;;;;;4910167;29;20447;-84
2023/12/21 08:42:45;;;;;;;1.70;1.00;;;21.20;54.00;;;;;;4917984;29;20462;-84
2023/12/21 08:45:14;;;;;;;4.40;1.27;;;21.20;54.10;;;;;;4909378;29;20602;-85
2023/12/21 08:47:43;;;;;;;2.47;1.10;;;21.30;54.00;;;;;;4912645;29;20994;-86
2023/12/21 08:50:12;;;;;;;1.90;1.40;;;21.30;53.90;;;;;;4913611;29;20464;-85
2023/12/21 08:52:42;;;;;;;1.20;0.97;;;21.30;53.90;;;;;;4919290;29;20499;-85
2023/12/21 08:55:13;;;;;;;1.10;1.00;;;21.30;53.80;;;;;;4911260;29;20497;-84
2023/12/21 08:57:42;;;;;;;1.07;0.97;;;21.30;53.90;;;;;;4915821;29;20518;-84
2023/12/21 09:00:12;;;;;;;1.97;1.30;;;21.30;53.70;;;;;;4897139;29;20590;-83
2023/12/21 09:02:41;;;;;;;1.07;1.07;;;21.30;53.80;;;;;;4920834;29;20499;-84
2023/12/21 09:05:12;;;;;;;2.37;1.07;;;21.30;53.60;;;;;;4912863;29;20472;-84
2023/12/21 09:07:40;;;;;;;0.80;0.80;;;21.30;53.60;;;;;;4908392;29;20544;-84
2023/12/21 09:10:09;;;;;;;3.60;0.93;;;21.30;53.60;;;;;;4911269;29;20463;-84
2023/12/21 09:12:39;;;;;;;1.60;0.83;;;21.30;53.60;;;;;;4907857;29;20464;-84
2023/12/21 09:15:09;;;;;;;1.00;0.93;;;21.30;53.40;;;;;;4906221;29;20454;-84
2023/12/21 09:17:37;;;;;;;0.90;0.80;;;21.30;53.50;;;;;;4905397;29;20547;-84
2023/12/21 09:20:08;;;;;;;0.93;0.83;;;21.30;53.50;;;;;;4929876;29;20466;-87
2023/12/21 09:22:37;;;;;;;1.03;0.93;;;21.20;53.50;;;;;;4906785;29;20455;-85
2023/12/21 09:25:09;;;;;;;1.13;0.93;;;21.20;53.60;;;;;;4930292;29;20458;-84
2023/12/21 09:27:38;;;;;;;1.43;0.90;;;21.20;53.60;;;;;;4919673;29;20473;-85
2023/12/21 09:30:08;;;;;;;1.00;0.90;;;21.20;53.60;;;;;;4915065;29;20469;-84
2023/12/21 09:32:36;;;;;;;0.90;0.90;;;21.20;53.60;;;;;;4926927;29;20472;-84
2023/12/21 09:35:06;;;;;;;1.50;1.30;;;21.10;53.70;;;;;;4943137;29;20887;-84
2023/12/21 09:37:35;;;;;;;1.10;1.00;;;21.10;53.70;;;;;;4917667;29;20464;-85
2023/12/21 09:40:06;;;;;;;0.90;0.90;;;21.10;53.80;;;;;;4912013;29;20524;-85
2023/12/21 09:42:39;;;;;;;1.63;1.53;;;21.10;53.90;;;;;;4913416;29;20614;-85
2023/12/21 09:45:11;;;;;;;1.27;0.90;;;21.10;53.70;;;;;;4925662;29;20474;-88
2023/12/21 09:47:40;;;;;;;6.60;1.60;;;21.10;53.70;;;;;;4938680;29;20492;-83
2023/12/21 09:50:09;;;;;;;6.70;1.90;;;21.20;54.20;;;;;;4932252;29;20466;-80
2023/12/21 09:52:39;;;;;;;5.63;1.50;;;21.20;54.40;;;;;;4931210;29;20465;-85
2023/12/21 09:55:09;;;;;;;15.43;3.07;;;21.20;54.40;;;;;;4929440;29;20476;-83
2023/12/21 09:57:38;;;;;;;1.10;1.10;;;21.20;54.70;;;;;;4936789;29;20459;-84
2023/12/21 10:00:10;;;;;;;6.30;1.50;;;21.20;54.40;;;;;;4929804;29;20465;-83
2023/12/21 10:02:41;;;;;;;2.13;1.07;;;21.30;54.10;;;;;;4931760;29;20532;-84
2023/12/21 10:05:11;;;;;;;3.00;1.40;;;21.30;54.10;;;;;;4930403;29;20992;-83
2023/12/21 10:07:42;;;;;;;4.13;1.10;;;21.30;54.00;;;;;;4928605;29;20466;-85
2023/12/21 10:10:11;;;;;;;3.13;1.50;;;21.30;53.90;;;;;;4933760;29;20458;-84
2023/12/21 10:12:41;;;;;;;2.77;1.97;;;21.40;53.90;;;;;;4931500;29;20471;-84
2023/12/21 10:15:11;;;;;;;1.50;1.40;;;21.40;53.90;;;;;;4917914;29;20531;-84
2023/12/21 10:17:40;;;;;;;5.00;1.80;;;21.50;53.80;;;;;;4917814;29;20499;-84
2023/12/21 10:20:11;;;;;;;1.93;1.10;;;21.50;53.70;;;;;;4924673;29;20456;-84
2023/12/21 10:22:40;;;;;;;2.00;0.80;;;21.50;53.70;;;;;;4918628;29;20456;-85
2023/12/21 10:25:10;;;;;;;1.90;1.00;;;21.60;53.70;;;;;;4925697;29;20463;-85
2023/12/21 10:27:40;;;;;;;0.93;0.90;;;21.60;53.60;;;;;;4933879;29;20489;-84
2023/12/21 10:30:11;;;;;;;0.93;0.90;;;21.60;53.50;;;;;;4940513;29;20467;-84
2023/12/21 10:32:39;;;;;;;1.10;1.03;;;21.60;53.50;;;;;;4925331;29;20952;-83
2023/12/21 10:35:08;;;;;;;1.23;0.83;;;21.60;53.40;;;;;;4921998;29;20483;-85
2023/12/21 10:37:39;;;;;;;1.07;0.87;;;21.60;53.40;;;;;;4928368;29;20459;-84
2023/12/21 10:40:11;;;;;;;1.07;0.70;;;21.50;53.40;;;;;;4927975;29;20525;-88
2023/12/21 10:42:39;;;;;;;1.70;1.23;;;21.50;53.50;;;;;;4936206;29;20450;-86
2023/12/21 10:45:10;;;;;;;2.20;0.83;;;21.50;53.80;;;;;;4916157;29;20538;-86
2023/12/21 10:47:55;;;;;;;1.70;1.33;;;21.50;53.90;;;;;;4927767;29;20470;-87
2023/12/21 10:50:25;;;;;;;3.37;1.00;;;21.50;53.80;;;;;;4924608;29;20940;-87
2023/12/21 10:52:54;;;;;;;7.03;1.40;;;21.50;53.80;;;;;;4926112;29;20493;-86
2023/12/21 10:55:24;;;;;;;3.27;1.10;;;21.50;53.80;;;;;;4907701;29;20499;-89
2023/12/21 10:57:53;;;;;;;1.37;0.83;;;21.40;53.80;;;;;;4927795;29;20455;-88
2023/12/21 11:00:24;;;;;;;2.90;1.00;;;21.40;53.80;;;;;;4925425;29;20507;-86
2023/12/21 11:02:53;;;;;;;4.97;1.23;;;21.40;53.90;;;;;;4930871;29;21058;-87
2023/12/21 11:05:22;;;;;;;4.53;1.13;;;21.40;53.70;;;;;;4937034;29;20818;-87
2023/12/21 11:07:53;;;;;;;4.93;1.07;;;21.40;53.80;;;;;;4932852;29;20470;-87
2023/12/21 11:10:23;;;;;;;3.20;0.90;;;21.50;53.90;;;;;;4928082;29;20473;-86
2023/12/21 11:12:51;;;;;;;5.07;1.70;;;21.50;53.80;;;;;;4934653;29;20922;-86
2023/12/21 11:15:21;;;;;;;3.03;1.00;;;21.50;53.80;;;;;;4925318;29;20555;-87
2023/12/21 11:17:54;;;;;;;1.13;0.93;;;21.60;53.80;;;;;;4938260;29;20482;-87
2023/12/21 11:20:29;;;;;;;2.43;1.00;;;21.60;53.80;;;;;;4933270;29;20529;-89
2023/12/21 11:23:13;;;;;;;0.60;0.60;;;21.60;53.90;;;;;;4925976;29;20568;-86
2023/12/21 11:25:41;;;;;;;1.20;0.90;;;21.70;53.50;;;;;;4928212;29;20455;-87
2023/12/21 11:28:10;;;;;;;2.30;0.90;;;21.70;53.50;;;;;;4932376;29;20510;-88
2023/12/21 11:30:38;;;;;;;1.33;0.70;;;21.70;53.40;;;;;;4935595;29;20513;-86
2023/12/21 11:33:10;;;;;;;3.03;1.33;;;21.70;53.50;;;;;;4923779;29;20459;-86
2023/12/21 11:35:39;;;;;;;0.87;0.73;;;21.70;53.50;;;;;;4930520;29;20517;-87
2023/12/21 11:38:07;;;;;;;0.83;0.73;;;21.70;53.40;;;;;;4931512;29;21008;-87
2023/12/21 11:40:38;;;;;;;0.50;0.50;;;21.70;53.40;;;;;;4929104;29;20558;-87
2023/12/21 11:43:08;;;;;;;2.10;0.90;;;21.70;53.70;;;;;;4922612;29;21248;-87
2023/12/21 11:45:38;;;;;;;0.60;0.60;;;21.70;53.60;;;;;;4937421;29;20963;-87
2023/12/21 11:48:16;;;;;;;0.70;0.70;;;21.60;53.60;;;;;;4936217;29;20641;-88
2023/12/21 11:50:45;;;;;;;0.50;0.43;;;21.60;53.60;;;;;;4919079;29;20471;-87
2023/12/21 11:53:25;;;;;;;1.13;0.70;;;21.60;53.60;;;;;;4929541;29;20499;-88
2023/12/21 11:55:53;;;;;;;3.37;0.90;;;21.60;53.70;;;;;;4919559;29;21067;-88
2023/12/21 11:58:23;;;;;;;0.90;0.67;;;21.50;53.70;;;;;;4939586;29;20449;-88
2023/12/21 12:00:53;;;;;;;2.77;0.70;;;21.50;53.70;;;;;;4931450;28;20465;-86
2023/12/21 12:03:25;;;;;;;0.70;0.70;;;21.50;53.80;;;;;;4936215;29;20461;-88
2023/12/21 12:06:00;;;;;;;0.60;0.57;;;21.50;53.80;;;;;;4932881;29;20527;-90
2023/12/21 12:08:28;;;;;;;3.03;0.70;;;21.50;53.80;;;;;;4929478;29;20465;-88
2023/12/21 12:10:58;;;;;;;2.00;0.80;;;21.50;53.90;;;;;;4941521;29;20524;-88
2023/12/21 12:13:27;;;;;;;1.07;0.70;;;21.50;54.00;;;;;;4927217;29;20455;-87
2023/12/21 12:15:55;;;;;;;1.13;0.80;;;21.50;53.90;;;;;;4926678;29;20558;-89
2023/12/21 12:18:27;;;;;;;1.50;0.87;;;21.60;53.90;;;;;;4927415;29;20497;-92
2023/12/21 12:21:00;;;;;;;1.30;1.20;;;21.60;53.90;;;;;;4928512;29;20502;-88
2023/12/21 12:23:29;;;;;;;1.10;0.83;;;21.60;53.90;;;;;;4923430;29;20862;-88
2023/12/21 12:25:57;;;;;;;1.10;0.73;;;21.60;53.90;;;;;;4925547;29;20977;-89
2023/12/21 12:28:26;;;;;;;1.20;0.73;;;21.60;53.90;;;;;;4926945;29;20471;-87
2023/12/21 12:30:55;;;;;;;2.30;1.43;;;21.60;53.80;;;;;;4909977;29;20491;-88
2023/12/21 12:33:26;;;;;;;1.70;0.97;;;21.70;53.80;;;;;;4922601;29;21017;-88
2023/12/21 12:35:56;;;;;;;1.30;1.20;;;21.70;53.70;;;;;;4921221;29;20514;-87
2023/12/21 12:38:27;;;;;;;2.83;1.70;;;21.70;53.80;;;;;;4938321;29;20468;-88
2023/12/21 12:40:56;;;;;;;1.23;1.13;;;21.70;53.70;;;;;;4938095;29;20935;-87
2023/12/21 12:43:30;;;;;;;2.10;1.50;;;21.70;53.80;;;;;;4932829;29;20457;-87
2023/12/21 12:45:58;;;;;;;1.30;1.20;;;21.70;53.80;;;;;;4926772;29;20454;-85
2023/12/21 12:48:28;;;;;;;3.83;2.37;;;21.80;53.80;;;;;;4928899;29;20500;-85
2023/12/21 12:50:56;;;;;;;1.47;1.30;;;21.80;53.80;;;;;;4933132;29;20489;-87
2023/12/21 12:53:26;;;;;;;2.03;1.40;;;21.80;53.80;;;;;;4934067;29;20462;-85
2023/12/21 12:55:56;;;;;;;2.00;1.87;;;21.80;53.80;;;;;;4932062;29;20846;-85
2023/12/21 12:58:35;;;;;;;2.30;1.20;;;21.80;53.70;;;;;;4925442;29;20518;-86